Time;durP1;ratioP1;P1;durP2;ratioP2;P2;SDS_P1;SDS_P2;PMS_P1;PMS_P2;Temp;Humidity;BMP_temperature;BMP_pressure;BME280_temperature;BME280_humidity;BME280_pressure;Samples;Min_cycle;Max_cycle;Signal;HPM_P1;HPM_P2
2022/10/19 00:01:11;;;;;;;1.42;0.40;;;;;;;13.26;73.64;97854.77;1758981;80;26643;-85
2022/10/19 00:03:39;;;;;;;0.50;0.50;;;;;;;13.21;73.75;97849.16;1731971;81;25674;-85
2022/10/19 00:06:15;;;;;;;0.60;0.60;;;;;;;13.17;73.81;97848.44;1726685;81;28286;-85
2022/10/19 00:08:43;;;;;;;0.70;0.60;;;;;;;13.19;73.88;97847.18;1747646;81;25729;-85
2022/10/19 00:11:11;;;;;;;1.60;0.65;;;;;;;13.21;73.96;97845.61;1748556;81;25672;-86
2022/10/19 00:13:38;;;;;;;1.77;0.75;;;;;;;13.20;73.98;97844.78;1729886;81;26459;-86
2022/10/19 00:16:09;;;;;;;0.90;0.90;;;;;;;13.21;73.98;97838.31;1750320;81;25697;-86
2022/10/19 00:18:36;;;;;;;1.02;0.70;;;;;;;13.24;73.96;97845.19;1750254;81;27395;-86
2022/10/19 00:21:08;;;;;;;3.33;0.90;;;;;;;13.24;73.98;97849.25;1750262;81;25770;-86
2022/10/19 00:23:34;;;;;;;0.88;0.75;;;;;;;13.21;74.16;97843.73;1743081;81;26438;-85
2022/10/19 00:26:01;;;;;;;2.15;0.95;;;;;;;13.18;74.17;97848.22;1720453;81;25741;-86
2022/10/19 00:28:28;;;;;;;1.50;0.78;;;;;;;13.19;74.21;97844.47;1720402;81;25811;-85
2022/10/19 00:30:55;;;;;;;1.65;0.75;;;;;;;13.18;74.23;97849.58;1720310;81;27450;-85
2022/10/19 00:33:22;;;;;;;0.90;0.78;;;;;;;13.14;74.34;97855.15;1723627;81;25934;-85
2022/10/19 00:35:51;;;;;;;2.15;0.75;;;;;;;13.11;74.38;97851.48;1750285;81;25193;-85
2022/10/19 00:38:20;;;;;;;1.07;0.98;;;;;;;13.14;74.42;97854.28;1750280;80;26437;-84
2022/10/19 00:40:48;;;;;;;1.37;1.22;;;;;;;13.14;74.42;97847.02;1740101;81;25306;-86
2022/10/19 00:43:19;;;;;;;2.45;1.60;;;;;;;13.11;74.46;97850.13;1740094;81;27378;-86
2022/10/19 00:45:46;;;;;;;2.15;1.40;;;;;;;13.06;74.52;97848.57;1726896;81;25727;-85
2022/10/19 00:48:20;;;;;;;1.45;1.35;;;;;;;13.02;74.66;97841.94;1750327;81;25742;-86
2022/10/19 00:50:50;;;;;;;1.40;1.00;;;;;;;12.99;74.68;97842.37;1726102;81;25763;-86
2022/10/19 00:53:17;;;;;;;1.10;0.90;;;;;;;13.01;74.75;97848.41;1750250;81;25688;-85
2022/10/19 00:55:44;;;;;;;1.10;1.00;;;;;;;13.04;74.80;97849.30;1729255;80;27327;-85
2022/10/19 00:58:11;;;;;;;1.75;1.00;;;;;;;13.02;74.92;97851.95;1735721;80;25697;-85
2022/10/19 01:00:38;;;;;;;1.52;1.40;;;;;;;12.99;75.03;97846.43;1724013;81;26223;-86
2022/10/19 01:03:06;;;;;;;1.72;1.50;;;;;;;12.97;75.08;97839.03;1758295;81;26365;-85
2022/10/19 01:05:34;;;;;;;1.72;1.50;;;;;;;12.96;75.17;97842.27;1758152;81;25697;-86
2022/10/19 01:08:01;;;;;;;2.22;1.60;;;;;;;12.97;75.22;97841.75;1758372;81;27371;-86
2022/10/19 01:10:48;;;;;;;2.10;1.40;;;;;;;12.97;75.31;97837.68;1758193;80;25847;-86
2022/10/19 01:13:37;;;;;;;2.12;1.37;;;;;;;12.98;75.39;97837.99;1756245;81;25727;-85
2022/10/19 01:16:15;;;;;;;1.47;1.37;;;;;;;12.97;75.40;97831.73;1753957;81;26540;-86
2022/10/19 01:18:56;;;;;;;1.75;1.57;;;;;;;12.98;75.64;97829.86;1715437;82;25795;-85
2022/10/19 01:21:33;;;;;;;1.57;1.47;;;;;;;12.89;75.52;97830.64;1731295;81;27375;-87
2022/10/19 01:24:17;;;;;;;2.20;2.00;;;;;;;12.91;75.63;97831.78;1757454;81;25918;-86
2022/10/19 01:27:31;;;;;;;3.65;2.00;;;;;;;12.89;75.75;97827.94;1757686;81;25747;-85
2022/10/19 01:30:15;;;;;;;2.80;2.60;;;;;;;12.89;75.81;97831.16;1750397;81;25979;-87
2022/10/19 01:32:54;;;;;;;3.10;2.75;;;;;;;12.91;75.83;97829.91;1727510;81;25368;-88
2022/10/19 01:35:50;;;;;;;3.00;2.77;;;;;;;12.92;75.88;97825.32;1735215;81;28475;-86
2022/10/19 01:38:28;;;;;;;3.35;3.00;;;;;;;12.93;75.88;97824.24;1736817;81;25941;-87
2022/10/19 01:41:05;;;;;;;3.92;3.62;;;;;;;12.94;75.93;97821.84;1756512;81;25681;-86
2022/10/19 01:43:52;;;;;;;7.47;5.35;;;;;;;12.92;76.00;97823.97;1751640;81;25693;-86
2022/10/19 01:46:30;;;;;;;6.25;5.50;;;;;;;12.91;76.03;97819.07;1747102;81;25734;-85
2022/10/19 01:49:05;;;;;;;6.83;6.12;;;;;;;12.94;76.02;97813.72;1728150;81;27448;-86
2022/10/19 01:51:37;;;;;;;6.90;6.30;;;;;;;12.96;76.01;97820.59;1747983;81;25784;-86
2022/10/19 01:54:08;;;;;;;8.35;7.55;;;;;;;12.94;76.02;97817.78;1758096;81;25756;-87
2022/10/19 01:56:37;;;;;;;9.65;8.55;;;;;;;12.92;76.13;97812.58;1758303;81;25723;-86
2022/10/19 01:59:07;;;;;;;9.40;8.50;;;;;;;12.93;76.13;97817.47;1758084;81;25786;-87
2022/10/19 02:01:37;;;;;;;10.70;9.70;;;;;;;12.89;76.14;97815.74;1755012;80;27348;-87
2022/10/19 02:04:05;;;;;;;10.53;9.63;;;;;;;12.86;76.14;97820.23;1749764;81;25934;-83
2022/10/19 02:06:32;;;;;;;10.08;9.18;;;;;;;12.84;76.15;97818.77;1750150;81;25797;-87
2022/10/19 02:08:58;;;;;;;11.35;10.25;;;;;;;12.82;76.06;97814.09;1750154;81;25720;-86
2022/10/19 02:11:25;;;;;;;11.53;10.43;;;;;;;12.77;76.14;97815.28;1735764;80;25752;-87
2022/10/19 02:13:57;;;;;;;9.58;8.43;;;;;;;12.70;76.25;97818.52;1743878;81;27548;-85
2022/10/19 02:16:32;;;;;;;10.72;9.73;;;;;;;12.66;76.19;97818.66;1713852;83;25924;-86
2022/10/19 02:19:01;;;;;;;9.28;8.38;;;;;;;12.65;76.25;97818.35;1743833;81;25764;-86
2022/10/19 02:21:27;;;;;;;8.70;7.85;;;;;;;12.62;76.44;97822.31;1750209;81;25772;-83
2022/10/19 02:23:54;;;;;;;8.75;7.85;;;;;;;12.50;76.42;97826.20;1749635;81;25937;-86
2022/10/19 02:26:21;;;;;;;9.33;8.43;;;;;;;12.46;76.47;97820.90;1729993;81;27404;-86
2022/10/19 02:28:49;;;;;;;9.38;7.00;;;;;;;12.49;76.47;97819.13;1749703;81;25694;-85
2022/10/19 02:31:16;;;;;;;8.53;7.62;;;;;;;12.51;76.49;97815.69;1727433;81;25793;-86
2022/10/19 02:33:43;;;;;;;9.25;8.35;;;;;;;12.50;76.40;97816.73;1731092;81;25721;-86
2022/10/19 02:36:10;;;;;;;9.65;8.65;;;;;;;12.53;76.45;97820.89;1730121;81;25814;-87
2022/10/19 02:38:36;;;;;;;11.88;10.75;;;;;;;12.55;76.45;97815.58;1728529;81;28229;-86
2022/10/19 02:41:17;;;;;;;13.32;11.48;;;;;;;12.57;76.43;97816.17;1729364;81;25691;-87
2022/10/19 02:43:48;;;;;;;11.78;10.68;;;;;;;12.59;76.43;97813.25;1738762;81;25742;-88
2022/10/19 02:46:28;;;;;;;14.03;12.68;;;;;;;12.60;76.43;97811.69;1750196;81;25725;-86
2022/10/19 02:48:56;;;;;;;14.28;12.80;;;;;;;12.63;76.42;97809.91;1697438;83;25702;-86
2022/10/19 02:51:33;;;;;;;13.95;12.55;;;;;;;12.62;76.47;97804.70;1738928;81;27430;-87
2022/10/19 02:54:00;;;;;;;13.32;12.00;;;;;;;12.62;76.45;97802.00;1750204;81;25711;-87
2022/10/19 02:56:27;;;;;;;15.68;12.80;;;;;;;12.61;76.52;97797.10;1750174;81;25701;-86
2022/10/19 02:58:53;;;;;;;13.22;11.93;;;;;;;12.60;76.51;97792.73;1750014;81;26513;-86
2022/10/19 03:01:20;;;;;;;13.68;12.37;;;;;;;12.61;76.56;97796.27;1751190;80;25686;-86
2022/10/19 03:03:47;;;;;;;14.30;12.90;;;;;;;12.59;76.62;97792.94;1758121;81;28299;-88
2022/10/19 03:06:14;;;;;;;14.05;12.55;;;;;;;12.54;76.70;97789.55;1758033;81;25834;-87
2022/10/19 03:08:40;;;;;;;14.58;13.20;;;;;;;12.52;76.79;97797.05;1756467;81;26287;-87
2022/10/19 03:11:07;;;;;;;16.02;13.32;;;;;;;12.50;76.88;97795.06;1736602;81;26274;-87
2022/10/19 03:13:33;;;;;;;15.15;13.62;;;;;;;12.51;77.00;97795.91;1758149;81;25753;-87
2022/10/19 03:16:11;;;;;;;15.20;13.60;;;;;;;12.49;77.00;97790.70;1750042;81;27398;-87
2022/10/19 03:18:38;;;;;;;14.70;13.18;;;;;;;12.49;77.05;97788.51;1747199;81;25758;-86
2022/10/19 03:21:12;;;;;;;16.45;13.65;;;;;;;12.50;77.11;97784.23;1758066;81;25807;-87
2022/10/19 03:23:39;;;;;;;14.95;13.08;;;;;;;12.48;77.20;97780.91;1758180;81;25769;-86
2022/10/19 03:26:07;;;;;;;15.78;14.03;;;;;;;12.44;77.24;97787.78;1758268;80;25702;-86
2022/10/19 03:28:34;;;;;;;16.85;13.55;;;;;;;12.43;77.36;97783.97;1758145;81;28204;-86
2022/10/19 03:31:01;;;;;;;15.40;13.83;;;;;;;12.45;77.43;97788.62;1757967;81;25880;-86
2022/10/19 03:33:27;;;;;;;15.88;14.00;;;;;;;12.46;77.48;97788.41;1736908;80;25777;-86
2022/10/19 03:36:16;;;;;;;15.32;13.40;;;;;;;12.46;77.53;97781.64;1758164;81;25713;-86
2022/10/19 03:38:42;;;;;;;15.85;13.93;;;;;;;12.43;77.58;97782.61;1737570;81;25684;-86
2022/10/19 03:41:09;;;;;;;16.27;14.58;;;;;;;12.37;77.68;97778.03;1758129;81;27367;-86
2022/10/19 03:43:36;;;;;;;17.17;14.73;;;;;;;12.38;77.79;97786.47;1758059;81;25652;-86
2022/10/19 03:46:03;;;;;;;17.05;15.32;;;;;;;12.37;77.82;97786.16;1741931;81;25755;-87
2022/10/19 03:48:29;;;;;;;16.87;15.10;;;;;;;12.35;77.88;97778.24;1753452;81;25729;-86
2022/10/19 03:51:12;;;;;;;16.45;14.83;;;;;;;12.34;77.95;97773.88;1758065;81;25717;-85
2022/10/19 03:53:39;;;;;;;16.97;15.03;;;;;;;12.35;77.94;97775.54;1758192;81;27448;-85
2022/10/19 03:56:11;;;;;;;18.57;15.18;;;;;;;12.38;78.05;97775.64;1758002;81;25657;-86
2022/10/19 03:58:41;;;;;;;16.20;14.50;;;;;;;12.37;78.04;97768.04;1758357;81;25808;-86
2022/10/19 04:01:12;;;;;;;18.02;14.30;;;;;;;12.38;78.14;97776.99;1758097;81;25737;-85
2022/10/19 04:03:39;;;;;;;16.03;14.47;;;;;;;12.40;78.09;97778.45;1750529;81;25728;-86
2022/10/19 04:06:10;;;;;;;16.82;14.83;;;;;;;12.37;78.21;97770.75;1750009;81;27504;-86
2022/10/19 04:08:36;;;;;;;19.75;16.50;;;;;;;12.34;78.26;97767.63;1724428;81;25755;-85
2022/10/19 04:11:07;;;;;;;20.77;15.40;;;;;;;12.31;78.36;97769.43;1729916;81;25686;-86
2022/10/19 04:13:34;;;;;;;27.60;19.85;;;;;;;12.30;78.39;97770.47;1750059;81;25723;-86
2022/10/19 04:16:01;;;;;;;24.07;20.05;;;;;;;12.33;78.46;97763.25;1729128;81;25814;-86
2022/10/19 04:18:28;;;;;;;24.63;19.75;;;;;;;12.33;78.43;97766.80;1749825;81;27431;-86
2022/10/19 04:20:57;;;;;;;23.73;19.55;;;;;;;12.34;78.47;97761.69;1749983;81;25763;-86
2022/10/19 04:23:27;;;;;;;20.05;17.95;;;;;;;12.35;78.48;97761.17;1731973;81;25654;-86
2022/10/19 04:26:06;;;;;;;17.95;15.53;;;;;;;12.37;78.49;97757.21;1744423;81;25865;-86
2022/10/19 04:28:34;;;;;;;18.02;15.18;;;;;;;12.40;78.48;97759.50;1750176;81;25739;-86
2022/10/19 04:31:05;;;;;;;17.23;15.30;;;;;;;12.40;78.54;97748.67;1724751;81;27462;-86
2022/10/19 04:33:33;;;;;;;14.28;12.88;;;;;;;12.36;78.55;97747.42;1728665;81;25805;-86
2022/10/19 04:36:01;;;;;;;12.98;10.90;;;;;;;12.35;78.58;97745.77;1750058;81;25761;-86
2022/10/19 04:38:28;;;;;;;15.32;12.88;;;;;;;12.36;78.54;97752.84;1750058;81;25928;-86
2022/10/19 04:40:55;;;;;;;15.23;13.62;;;;;;;12.37;78.59;97753.67;1750037;81;25739;-86
2022/10/19 04:43:22;;;;;;;15.48;13.88;;;;;;;12.31;78.76;97748.61;1750046;81;27317;-86
2022/10/19 04:45:48;;;;;;;12.88;11.55;;;;;;;12.28;78.76;97747.67;1750289;80;25237;-86
2022/10/19 04:48:15;;;;;;;13.72;12.43;;;;;;;12.24;78.80;97746.43;1750326;81;25723;-86
2022/10/19 04:50:41;;;;;;;13.43;12.13;;;;;;;12.22;78.85;97748.52;1739893;81;25726;-86
2022/10/19 04:53:08;;;;;;;12.43;11.22;;;;;;;12.26;78.91;97745.70;1739828;81;25758;-86
2022/10/19 04:55:41;;;;;;;12.18;10.15;;;;;;;12.26;78.96;97747.89;1750073;81;27360;-85
2022/10/19 04:58:07;;;;;;;11.63;10.43;;;;;;;12.27;78.99;97744.66;1750153;81;25911;-86
2022/10/19 05:00:34;;;;;;;11.05;10.05;;;;;;;12.26;79.05;97753.82;1750066;81;25263;-86
2022/10/19 05:03:01;;;;;;;11.75;10.55;;;;;;;12.22;78.98;97753.92;1732459;81;25718;-85
2022/10/19 05:05:27;;;;;;;11.38;10.28;;;;;;;12.21;79.01;97754.45;1765573;80;25776;-86
2022/10/19 05:07:55;;;;;;;9.70;8.70;;;;;;;12.21;79.07;97763.09;1765318;80;45607;-85
2022/10/19 05:10:21;;;;;;;7.97;7.17;;;;;;;12.16;79.11;97761.03;1765115;80;25705;-86
2022/10/19 05:12:48;;;;;;;9.38;7.83;;;;;;;12.16;79.10;97756.14;1765627;80;25638;-85
2022/10/19 05:15:14;;;;;;;8.10;7.40;;;;;;;12.17;79.04;97752.40;1765655;80;26316;-86
2022/10/19 05:17:41;;;;;;;8.98;7.90;;;;;;;12.16;79.02;97753.44;1765315;80;25782;-86
2022/10/19 05:20:10;;;;;;;9.18;8.38;;;;;;;12.14;78.95;97752.30;1765334;80;27424;-86
2022/10/19 05:22:38;;;;;;;8.98;8.08;;;;;;;12.16;78.97;97760.20;1744112;80;25839;-84
2022/10/19 05:25:06;;;;;;;10.85;8.88;;;;;;;12.18;78.95;97759.48;1765580;80;25520;-86
2022/10/19 05:27:33;;;;;;;9.55;8.65;;;;;;;12.18;78.85;97760.31;1761974;80;26319;-86
2022/10/19 05:30:00;;;;;;;10.43;9.33;;;;;;;12.18;78.90;97758.13;1748010;81;25660;-86
2022/10/19 05:32:27;;;;;;;10.00;8.93;;;;;;;12.17;78.93;97756.45;1743362;80;27341;-86
2022/10/19 05:34:54;;;;;;;11.10;9.98;;;;;;;12.13;78.97;97760.10;1756620;80;25675;-85
2022/10/19 05:37:20;;;;;;;10.98;9.88;;;;;;;12.13;79.10;97763.33;1748909;80;26425;-86
2022/10/19 05:39:47;;;;;;;13.58;11.03;;;;;;;12.07;79.09;97764.19;1765531;80;26445;-86
2022/10/19 05:42:13;;;;;;;13.48;10.85;;;;;;;12.06;79.12;97767.94;1765610;80;25833;-86
2022/10/19 05:44:40;;;;;;;11.12;10.03;;;;;;;12.08;79.15;97767.18;1742909;80;27614;-86
2022/10/19 05:47:06;;;;;;;11.12;10.03;;;;;;;12.09;79.12;97764.78;1740865;80;26359;-86
2022/10/19 05:49:33;;;;;;;12.73;10.60;;;;;;;12.11;79.12;97762.70;1765443;80;25833;-86
2022/10/19 05:52:00;;;;;;;13.03;11.65;;;;;;;12.11;79.16;97762.70;1759805;80;26581;-86
2022/10/19 05:54:27;;;;;;;12.15;10.95;;;;;;;12.12;79.19;97765.20;1735028;80;25728;-86
2022/10/19 05:56:53;;;;;;;11.75;10.48;;;;;;;12.12;79.24;97769.78;1759377;80;28182;-87
2022/10/19 05:59:21;;;;;;;14.05;10.78;;;;;;;12.10;79.30;97761.88;1765413;80;25741;-86
2022/10/19 06:01:47;;;;;;;13.15;11.60;;;;;;;12.08;79.30;97771.23;1765441;81;26460;-86
2022/10/19 06:04:14;;;;;;;14.40;11.73;;;;;;;12.09;79.24;97776.96;1761780;80;25836;-85
2022/10/19 06:06:42;;;;;;;13.95;12.05;;;;;;;12.11;79.20;97780.30;1762054;81;25714;-86
2022/10/19 06:09:09;;;;;;;14.85;13.18;;;;;;;12.12;79.11;97769.27;1765299;80;27577;-86
2022/10/19 06:11:39;;;;;;;13.60;12.10;;;;;;;12.15;79.11;97776.13;1765479;80;25680;-85
2022/10/19 06:14:13;;;;;;;16.25;13.83;;;;;;;12.20;79.24;97779.02;1762565;80;25721;-86
2022/10/19 06:16:40;;;;;;;15.25;12.88;;;;;;;12.26;79.22;97775.47;1763875;80;25758;-86
2022/10/19 06:19:06;;;;;;;18.45;13.83;;;;;;;12.30;79.08;97782.13;1765482;81;26076;-85
2022/10/19 06:21:34;;;;;;;18.55;13.18;;;;;;;12.30;78.98;97783.48;1765221;80;27476;-85
2022/10/19 06:24:04;;;;;;;18.45;15.38;;;;;;;12.32;78.98;97783.27;1765420;80;25726;-86
2022/10/19 06:26:34;;;;;;;18.15;14.68;;;;;;;12.30;79.07;97782.13;1765453;80;25736;-86
2022/10/19 06:29:02;;;;;;;18.98;13.80;;;;;;;12.31;78.85;97784.32;1765395;80;26191;-86
2022/10/19 06:31:31;;;;;;;14.18;12.63;;;;;;;12.27;78.61;97783.91;1761307;80;25740;-86
2022/10/19 06:33:58;;;;;;;13.83;12.45;;;;;;;12.27;78.57;97794.73;1735056;80;27537;-86
2022/10/19 06:36:28;;;;;;;15.43;12.43;;;;;;;12.24;78.46;97798.69;1758382;80;25775;-85
2022/10/19 06:39:02;;;;;;;14.78;12.10;;;;;;;12.24;78.38;97795.15;1765463;81;25802;-86
2022/10/19 06:41:27;;;;;;;19.30;13.35;;;;;;;12.24;78.07;97796.50;1764370;80;25719;-86
2022/10/19 06:43:54;;;;;;;13.98;12.37;;;;;;;12.20;77.94;97796.08;1765722;80;25785;-85
2022/10/19 06:46:24;;;;;;;14.03;12.00;;;;;;;12.20;77.82;97800.66;1765485;80;28061;-86
2022/10/19 06:48:54;;;;;;;15.05;11.75;;;;;;;12.21;77.74;97806.39;1765247;80;25768;-86
2022/10/19 06:51:22;;;;;;;18.10;12.00;;;;;;;12.25;77.57;97807.64;1765042;80;25673;-85
2022/10/19 06:53:48;;;;;;;14.40;11.20;;;;;;;12.28;77.36;97813.98;1743888;80;26445;-85
2022/10/19 06:56:15;;;;;;;13.50;10.88;;;;;;;12.33;77.10;97816.04;1765604;81;25748;-86
2022/10/19 06:58:42;;;;;;;12.37;11.12;;;;;;;12.34;76.82;97811.77;1765433;81;27995;-83
2022/10/19 07:01:08;;;;;;;12.80;11.03;;;;;;;12.35;76.63;97818.85;1765297;80;25299;-83
2022/10/19 07:03:36;;;;;;;12.60;10.88;;;;;;;12.33;76.31;97823.64;1756532;80;25760;-85
2022/10/19 07:06:07;;;;;;;15.18;10.85;;;;;;;12.29;76.14;97822.94;1749889;81;25679;-83
2022/10/19 07:08:35;;;;;;;16.00;11.43;;;;;;;12.31;76.11;97825.75;1749413;81;25681;-87
2022/10/19 07:11:07;;;;;;;15.20;11.48;;;;;;;12.36;76.10;97832.70;1749971;81;26734;-86
2022/10/19 07:13:34;;;;;;;14.77;11.67;;;;;;;12.37;76.19;97836.23;1749941;81;25868;-87
2022/10/19 07:16:09;;;;;;;15.93;12.00;;;;;;;12.33;76.04;97833.11;1741928;81;25717;-85
2022/10/19 07:18:38;;;;;;;16.27;11.93;;;;;;;12.29;76.04;97844.08;1739331;81;26519;-85
2022/10/19 07:21:10;;;;;;;14.78;11.75;;;;;;;12.18;76.07;97847.43;1749972;81;25736;-86
2022/10/19 07:23:39;;;;;;;14.60;11.75;;;;;;;12.16;76.18;97850.86;1749934;81;27465;-86
2022/10/19 07:26:13;;;;;;;17.65;12.23;;;;;;;12.13;76.18;97849.92;1749959;81;25998;-82
2022/10/19 07:28:44;;;;;;;14.20;10.32;;;;;;;12.13;76.04;97852.63;1747733;81;25777;-84
2022/10/19 07:31:13;;;;;;;12.53;9.93;;;;;;;12.07;75.76;97857.55;1749628;81;26690;-84
2022/10/19 07:33:40;;;;;;;14.43;9.60;;;;;;;12.06;75.66;97859.94;1718389;81;25292;-85
2022/10/19 07:36:12;;;;;;;13.85;9.00;;;;;;;12.07;75.46;97864.31;1737536;81;28246;-83
2022/10/19 07:38:39;;;;;;;10.70;8.78;;;;;;;12.05;75.47;97860.45;1749918;81;25695;-86
2022/10/19 07:41:11;;;;;;;15.78;8.63;;;;;;;12.08;75.24;97864.59;1732190;81;25698;-86
2022/10/19 07:43:39;;;;;;;12.30;8.35;;;;;;;12.08;75.18;97860.02;1727506;81;25855;-86
2022/10/19 07:46:13;;;;;;;10.72;7.47;;;;;;;12.20;75.04;97858.85;1750265;81;25797;-85
2022/10/19 07:48:39;;;;;;;12.00;7.33;;;;;;;12.39;74.74;97866.64;1749980;81;28195;-84
2022/10/19 07:51:09;;;;;;;13.13;8.53;;;;;;;12.42;74.35;97868.94;1749988;81;25250;-87
2022/10/19 07:53:36;;;;;;;10.28;7.15;;;;;;;12.45;74.23;97868.48;1750046;81;26308;-86
2022/10/19 07:56:16;;;;;;;13.83;7.78;;;;;;;12.48;74.11;97868.91;1750026;81;25749;-85
2022/10/19 07:58:43;;;;;;;11.15;7.70;;;;;;;12.53;73.93;97867.77;1750078;81;25658;-85
2022/10/19 08:01:16;;;;;;;10.63;7.50;;;;;;;12.57;73.69;97862.20;1750117;81;27587;-88
2022/10/19 08:03:44;;;;;;;14.70;7.40;;;;;;;12.62;73.50;97855.64;1755443;80;25779;-87
2022/10/19 08:06:15;;;;;;;11.33;7.70;;;;;;;12.61;73.31;97849.91;1763166;80;25666;-84
2022/10/19 08:08:43;;;;;;;10.10;7.55;;;;;;;12.60;73.56;97855.54;1765423;80;25772;-84
2022/10/19 08:11:22;;;;;;;12.20;6.83;;;;;;;12.78;73.79;97848.09;1765581;81;25962;-84
2022/10/19 08:13:49;;;;;;;11.65;5.35;;;;;;;12.92;73.74;97845.64;1762663;80;28285;-87
2022/10/19 08:16:24;;;;;;;9.00;4.92;;;;;;;12.98;72.87;97845.59;1764070;81;25705;-84
2022/10/19 08:18:57;;;;;;;9.28;4.87;;;;;;;12.98;72.53;97838.83;1762737;80;25741;-84
2022/10/19 08:21:26;;;;;;;9.18;4.78;;;;;;;12.99;72.00;97836.95;1765785;80;25775;-85
2022/10/19 08:23:52;;;;;;;11.85;4.70;;;;;;;13.09;71.64;97822.40;1763115;80;25824;-86
2022/10/19 08:26:19;;;;;;;7.30;4.55;;;;;;;13.21;70.80;97828.83;1765589;80;27369;-83
2022/10/19 08:28:45;;;;;;;7.55;4.12;;;;;;;13.25;70.65;97827.88;1765508;80;25785;-84
2022/10/19 08:31:21;;;;;;;8.38;4.30;;;;;;;13.27;69.95;97823.91;1764725;80;25701;-85
2022/10/19 08:33:51;;;;;;;10.30;4.85;;;;;;;13.28;69.59;97821.47;1735272;80;25765;-85
2022/10/19 08:36:18;;;;;;;9.53;4.50;;;;;;;13.27;68.84;97815.77;1734874;80;25819;-83
2022/10/19 08:38:47;;;;;;;7.40;4.85;;;;;;;13.22;68.50;97814.22;1745220;80;28462;-86
2022/10/19 08:41:45;;;;;;;7.58;4.47;;;;;;;13.20;68.64;97818.19;1745509;81;25734;-82
2022/10/19 08:44:37;;;;;;;8.65;5.55;;;;;;;13.15;68.34;97817.52;1749517;81;25564;-83
2022/10/19 08:47:43;;;;;;;11.97;5.78;;;;;;;13.12;68.18;97820.62;1757965;80;26494;-84
2022/10/19 08:50:26;;;;;;;12.58;5.83;;;;;;;13.02;68.07;97821.62;1735162;80;25665;-85
2022/10/19 08:53:15;;;;;;;5.92;4.95;;;;;;;12.93;68.19;97818.83;1734879;80;27402;-85
2022/10/19 08:55:58;;;;;;;10.18;5.20;;;;;;;12.94;68.36;97820.49;1744449;80;25441;-86
2022/10/19 08:58:36;;;;;;;8.10;5.08;;;;;;;12.98;68.47;97825.27;1765404;80;25691;-87
2022/10/19 09:01:30;;;;;;;9.85;5.50;;;;;;;13.03;68.61;97824.64;1763583;81;26528;-86
2022/10/19 09:04:08;;;;;;;7.60;5.30;;;;;;;13.03;68.33;97827.34;1765431;80;25249;-83
2022/10/19 09:06:52;;;;;;;10.00;6.00;;;;;;;12.95;67.84;97834.35;1765584;81;27484;-86
2022/10/19 09:09:20;;;;;;;10.13;6.00;;;;;;;12.93;67.79;97840.50;1765534;80;25674;-82
2022/10/19 09:11:52;;;;;;;10.80;6.17;;;;;;;12.83;67.60;97834.72;1765551;80;25723;-86
2022/10/19 09:14:32;;;;;;;10.88;6.40;;;;;;;12.79;67.65;97841.63;1765733;80;26473;-84
2022/10/19 09:17:02;;;;;;;10.38;6.97;;;;;;;12.80;67.86;97835.97;1734505;81;25787;-86
2022/10/19 09:19:30;;;;;;;12.13;7.12;;;;;;;12.76;67.68;97840.18;1744173;80;27373;-83
2022/10/19 09:22:07;;;;;;;13.78;6.80;;;;;;;12.76;67.64;97850.18;1765101;81;25781;-83
2022/10/19 09:24:39;;;;;;;12.35;6.90;;;;;;;12.75;67.46;97845.80;1765566;80;25708;-86
2022/10/19 09:27:11;;;;;;;9.10;6.92;;;;;;;12.77;67.61;97836.95;1765979;80;26105;-85
2022/10/19 09:29:49;;;;;;;11.93;6.30;;;;;;;12.77;67.64;97838.30;1744098;80;25714;-85
2022/10/19 09:32:33;;;;;;;12.55;6.80;;;;;;;12.80;67.73;97833.82;1745103;80;27364;-84
2022/10/19 09:35:16;;;;;;;12.33;7.33;;;;;;;12.79;67.65;97842.98;1740677;80;26067;-83
2022/10/19 09:37:47;;;;;;;13.18;7.10;;;;;;;12.81;67.52;97842.23;1765456;80;25726;-89
2022/10/19 09:40:21;;;;;;;10.23;6.17;;;;;;;12.83;67.28;97837.42;1758171;80;25804;-88
2022/10/19 09:42:56;;;;;;;9.28;6.20;;;;;;;12.79;66.99;97841.63;1734627;80;25697;-86
2022/10/19 09:45:37;;;;;;;13.20;6.12;;;;;;;12.74;66.69;97836.02;1763495;80;27398;-85
2022/10/19 09:48:11;;;;;;;9.20;5.00;;;;;;;12.70;66.32;97834.77;1765564;80;25697;-84
2022/10/19 09:50:44;;;;;;;8.98;5.80;;;;;;;12.62;66.25;97832.62;1741752;80;25669;-81
2022/10/19 09:53:20;;;;;;;9.68;5.92;;;;;;;12.57;65.89;97827.00;1745177;80;25678;-82
2022/10/19 09:55:51;;;;;;;8.33;5.75;;;;;;;12.59;65.74;97828.15;1745489;81;25928;-82
2022/10/19 09:58:19;;;;;;;12.63;5.53;;;;;;;12.62;65.53;97819.60;1763636;79;28277;-84
2022/10/19 10:00:55;;;;;;;7.05;5.08;;;;;;;12.61;65.02;97815.23;1755179;81;25667;-84
2022/10/19 10:03:34;;;;;;;11.30;5.20;;;;;;;12.55;64.78;97815.58;1733981;80;25576;-83
2022/10/19 10:06:14;;;;;;;9.60;5.20;;;;;;;12.48;64.34;97809.34;1734916;81;25800;-84
2022/10/19 10:08:48;;;;;;;11.48;5.30;;;;;;;12.48;64.47;97818.81;1757706;80;25702;-83
2022/10/19 10:11:28;;;;;;;11.15;5.33;;;;;;;12.48;64.30;97817.45;1764492;80;27402;-85
2022/10/19 10:13:56;;;;;;;6.62;5.12;;;;;;;12.41;64.03;97813.95;1765261;80;25772;-85
2022/10/19 10:16:32;;;;;;;9.08;5.42;;;;;;;12.37;64.00;97814.58;1752646;80;25287;-85
2022/10/19 10:19:00;;;;;;;8.20;5.80;;;;;;;12.36;63.98;97819.69;1735838;80;25523;-86
2022/10/19 10:21:36;;;;;;;11.63;5.35;;;;;;;12.30;63.87;97826.80;1765289;80;25277;-88
2022/10/19 10:24:11;;;;;;;11.38;6.10;;;;;;;12.22;63.93;97824.30;1765462;80;27373;-84
2022/10/19 10:26:47;;;;;;;15.45;6.85;;;;;;;12.18;64.02;97825.27;1764640;81;25769;-85
2022/10/19 10:29:26;;;;;;;9.65;6.85;;;;;;;12.19;64.08;97832.86;1744159;80;25765;-84
2022/10/19 10:32:07;;;;;;;12.98;6.97;;;;;;;12.19;64.32;97834.21;1765564;81;26467;-86
2022/10/19 10:34:59;;;;;;;10.30;6.83;;;;;;;12.18;64.33;97831.20;1765516;80;25795;-84
2022/10/19 10:37:39;;;;;;;13.03;7.75;;;;;;;12.16;64.29;97827.86;1750197;81;27445;-84
2022/10/19 10:40:23;;;;;;;12.37;7.37;;;;;;;12.17;64.38;97832.23;1758758;81;25671;-83
2022/10/19 10:42:52;;;;;;;11.20;6.72;;;;;;;12.13;64.29;97833.69;1753683;80;25649;-85
2022/10/19 10:45:39;;;;;;;13.43;6.92;;;;;;;12.26;64.54;97824.19;1765154;80;25786;-85
2022/10/19 10:48:28;;;;;;;11.78;6.08;;;;;;;12.47;64.24;97823.08;1765548;81;25725;-83
2022/10/19 10:50:57;;;;;;;15.08;6.03;;;;;;;12.58;64.55;97819.19;1765499;80;27365;-84
2022/10/19 10:53:45;;;;;;;12.10;5.75;;;;;;;12.70;64.02;97813.10;1763540;80;25725;-85
2022/10/19 10:56:29;;;;;;;7.60;5.58;;;;;;;12.75;63.67;97810.59;1735128;81;25758;-84
2022/10/19 10:59:19;;;;;;;11.93;4.95;;;;;;;12.73;63.12;97807.27;1763335;80;26410;-84
2022/10/19 11:02:03;;;;;;;11.22;4.70;;;;;;;12.77;62.99;97809.86;1743948;80;25830;-82
2022/10/19 11:04:39;;;;;;;9.25;4.47;;;;;;;12.78;62.65;97813.72;1737131;81;27365;-85
2022/10/19 11:07:13;;;;;;;6.53;3.83;;;;;;;12.82;62.33;97810.02;1760881;80;25858;-83
2022/10/19 11:09:45;;;;;;;9.08;3.95;;;;;;;12.75;61.87;97808.72;1744942;81;25744;-82
2022/10/19 11:12:15;;;;;;;8.95;3.92;;;;;;;12.70;61.47;97818.52;1765483;80;25735;-84
2022/10/19 11:15:02;;;;;;;8.13;3.92;;;;;;;12.68;61.15;97820.08;1765625;81;25670;-84
2022/10/19 11:17:32;;;;;;;7.25;3.70;;;;;;;12.61;61.04;97817.41;1764644;80;27379;-89
2022/10/19 11:19:59;;;;;;;4.50;3.45;;;;;;;12.53;60.89;97818.19;1765086;80;25286;-81
2022/10/19 11:22:52;;;;;;;8.40;4.30;;;;;;;12.42;60.75;97824.27;1765470;79;25746;-85
2022/10/19 11:25:31;;;;;;;;;;;;;;;12.38;60.85;97821.14;1755066;80;25767;-84
2022/10/19 11:28:12;;;;;;;8.93;3.60;;;;;;;12.33;60.41;97823.64;1765233;81;25759;-84
2022/10/19 11:31:11;;;;;;;9.70;3.92;;;;;;;12.27;60.83;97820.44;1742454;80;27402;-82
2022/10/19 11:34:16;;;;;;;14.70;4.22;;;;;;;12.25;60.90;97830.64;1744899;80;25859;-83
2022/10/19 11:37:00;;;;;;;5.85;3.30;;;;;;;12.12;61.13;97836.08;1744021;80;25750;-84
2022/10/19 11:39:48;;;;;;;7.45;3.40;;;;;;;11.99;61.10;97836.09;1765481;81;26509;-84
2022/10/19 11:42:25;;;;;;;9.33;3.47;;;;;;;11.92;61.28;97826.65;1754013;81;25714;-85
2022/10/19 11:45:24;;;;;;;9.10;3.10;;;;;;;11.89;61.43;97818.94;1757812;80;28138;-83
2022/10/19 11:48:36;;;;;;;11.48;2.95;;;;;;;11.86;61.26;97817.48;1765331;81;26344;-85